Time;durP1;ratioP1;P1;durP2;ratioP2;P2;SDS_P1;SDS_P2;PMS_P1;PMS_P2;Temp;Humidity;BMP_temperature;BMP_pressure;BME280_temperature;BME280_humidity;BME280_pressure;Samples;Min_cycle;Max_cycle;Signal;HPM_P1;HPM_P2
2022/02/17 00:01:44;;;;;;;0.47;0.40;;;;;;;-139.48;100.00;61774.03;5013932;28;20095;-73
2022/02/17 00:04:28;;;;;;;0.60;0.40;;;;;;;-139.48;100.00;61774.03;4999229;28;20095;-73
2022/02/17 00:07:12;;;;;;;0.28;0.28;;;;;;;-139.48;100.00;61774.03;4998907;28;20053;-74
2022/02/17 00:09:56;;;;;;;;;;;;;;;-139.48;100.00;61774.03;5013434;28;20069;-74
2022/02/17 00:12:40;;;;;;;0.30;0.30;;;;;;;-139.48;100.00;61774.03;5014076;28;19937;-73
2022/02/17 00:15:26;;;;;;;4.95;0.30;;;;;;;-139.48;100.00;61774.03;5012696;28;20048;-72
2022/02/17 00:18:21;;;;;;;0.22;0.22;;;;;;;-139.48;100.00;61774.03;5013691;28;20052;-73
2022/02/17 00:21:05;;;;;;;0.25;0.20;;;;;;;-139.48;100.00;61774.03;5013071;28;20172;-73
2022/02/17 00:23:49;;;;;;;0.73;0.28;;;;;;;-139.48;100.00;61774.03;5012672;28;20422;-73
2022/02/17 00:26:33;;;;;;;;;;;;;;;-139.48;100.00;61774.03;5013960;28;20581;-74
2022/02/17 00:29:16;;;;;;;0.63;0.28;;;;;;;-139.48;100.00;61774.03;5013634;28;19968;-73
2022/02/17 00:32:00;;;;;;;0.30;0.30;;;;;;;-139.48;100.00;61774.03;5012684;28;20045;-74
2022/02/17 00:34:44;;;;;;;0.20;0.20;;;;;;;-139.48;100.00;61774.03;5013430;28;20132;-73
2022/02/17 00:37:28;;;;;;;0.20;0.20;;;;;;;-139.48;100.00;61774.03;5012506;28;20147;-74
2022/02/17 00:40:12;;;;;;;1.42;0.40;;;;;;;-139.48;100.00;61774.03;5012490;28;20048;-74
2022/02/17 00:42:56;;;;;;;0.10;0.10;;;;;;;-139.48;100.00;61774.03;4998601;28;20128;-74
2022/02/17 00:45:40;;;;;;;0.20;0.20;;;;;;;-139.48;100.00;61774.03;5012225;28;20053;-74
2022/02/17 00:48:24;;;;;;;;;;;;;;;-139.48;100.00;61774.03;4998573;28;20049;-74
2022/02/17 00:51:08;;;;;;;0.30;0.30;;;;;;;-139.48;100.00;61774.03;4998448;28;20013;-73
2022/02/17 00:53:52;;;;;;;0.20;0.20;;;;;;;-139.48;100.00;61774.03;4998496;28;20096;-73
2022/02/17 00:56:36;;;;;;;0.30;0.30;;;;;;;-139.48;100.00;61774.03;5012881;28;20061;-74
2022/02/17 00:59:19;;;;;;;0.20;0.20;;;;;;;-139.48;100.00;61774.03;5011948;28;20107;-73
2022/02/17 01:02:04;;;;;;;0.73;0.30;;;;;;;-139.48;100.00;61774.03;5013216;28;20467;-73
2022/02/17 01:04:48;;;;;;;0.35;0.35;;;;;;;-139.48;100.00;61774.03;5013642;28;20048;-74
2022/02/17 01:07:32;;;;;;;0.20;0.20;;;;;;;-139.48;100.00;61774.03;5012979;28;20516;-74
2022/02/17 01:10:16;;;;;;;1.05;0.47;;;;;;;-139.48;100.00;61774.03;5012134;28;20123;-72
2022/02/17 01:13:00;;;;;;;0.38;0.30;;;;;;;-139.48;100.00;61774.03;5012058;28;20104;-74
2022/02/17 01:15:45;;;;;;;0.65;0.20;;;;;;;-139.48;100.00;61774.03;5012794;28;20056;-73
2022/02/17 01:18:28;;;;;;;0.63;0.30;;;;;;;-139.48;100.00;61774.03;5012726;28;20061;-71
2022/02/17 01:21:12;;;;;;;0.30;0.30;;;;;;;-139.48;100.00;61774.03;5012989;28;20056;-73
2022/02/17 01:23:56;;;;;;;1.65;0.20;;;;;;;-139.48;100.00;61774.03;5012048;28;20140;-73
2022/02/17 01:26:40;;;;;;;0.20;0.20;;;;;;;-139.48;100.00;61774.03;5011670;28;20421;-73
2022/02/17 01:29:24;;;;;;;0.80;0.30;;;;;;;-139.48;100.00;61774.03;5011848;28;20465;-73
2022/02/17 01:32:08;;;;;;;0.47;0.30;;;;;;;-139.48;100.00;61774.03;5012754;28;20088;-73
2022/02/17 01:34:52;;;;;;;2.25;0.20;;;;;;;-139.48;100.00;61774.03;5013090;28;20119;-73
2022/02/17 01:37:36;;;;;;;0.20;0.20;;;;;;;-139.48;100.00;61774.03;4997754;28;20493;-73
2022/02/17 01:40:20;;;;;;;0.25;0.20;;;;;;;-139.48;100.00;61774.03;4997678;28;20076;-73
2022/02/17 01:43:04;;;;;;;0.20;0.20;;;;;;;-139.48;100.00;61774.03;4998121;28;20068;-72
2022/02/17 01:45:48;;;;;;;1.65;0.82;;;;;;;-139.48;100.00;61774.03;5011747;28;20512;-73
2022/02/17 01:48:32;;;;;;;0.10;0.10;;;;;;;-139.48;100.00;61774.03;4997491;28;20060;-73
2022/02/17 01:51:16;;;;;;;0.30;0.20;;;;;;;-139.48;100.00;61774.03;5011443;28;20540;-73
2022/02/17 01:54:01;;;;;;;0.85;0.30;;;;;;;-139.48;100.00;61774.03;5011840;28;20091;-73
2022/02/17 01:56:45;;;;;;;1.95;0.30;;;;;;;-139.48;100.00;61774.03;5011323;28;20100;-72
2022/02/17 01:59:29;;;;;;;;;;;;;;;-139.48;100.00;61774.03;5013005;28;20045;-73
2022/02/17 02:02:13;;;;;;;0.20;0.20;;;;;;;-139.48;100.00;61774.03;5011308;28;20364;-73
2022/02/17 02:04:57;;;;;;;0.68;0.25;;;;;;;-139.48;100.00;61774.03;5011346;28;20107;-73
2022/02/17 02:07:41;;;;;;;0.32;0.22;;;;;;;-139.48;100.00;61774.03;5012930;28;20052;-73
2022/02/17 02:10:26;;;;;;;1.48;0.20;;;;;;;-139.48;100.00;61774.03;5015440;28;20417;-73
2022/02/17 02:13:09;;;;;;;1.75;0.85;;;;;;;-139.48;100.00;61774.03;5015173;28;20068;-70
2022/02/17 02:15:54;;;;;;;0.20;0.20;;;;;;;-139.48;100.00;61774.03;5015103;28;20061;-73
2022/02/17 02:18:38;;;;;;;0.20;0.20;;;;;;;-139.48;100.00;61774.03;5014786;28;20417;-73
2022/02/17 02:21:22;;;;;;;0.20;0.20;;;;;;;-139.48;100.00;61774.03;5001135;28;20184;-74
2022/02/17 02:24:06;;;;;;;0.17;0.15;;;;;;;-139.48;100.00;61774.03;5015678;28;20469;-73
2022/02/17 02:26:50;;;;;;;0.17;0.17;;;;;;;-139.48;100.00;61774.03;5014861;28;20435;-73
2022/02/17 02:29:34;;;;;;;0.20;0.20;;;;;;;-139.48;100.00;61774.03;5015769;28;20460;-73
2022/02/17 02:32:18;;;;;;;1.00;0.32;;;;;;;-139.48;100.00;61774.03;5015859;28;20114;-73
2022/02/17 02:35:02;;;;;;;0.20;0.20;;;;;;;-139.48;100.00;61774.03;5014580;28;20394;-73
2022/02/17 02:37:46;;;;;;;0.60;0.35;;;;;;;-139.48;100.00;61774.03;5014883;28;20116;-73
2022/02/17 02:40:30;;;;;;;0.10;0.10;;;;;;;-139.48;100.00;61774.03;5015513;28;20155;-73
2022/02/17 02:43:14;;;;;;;0.10;0.10;;;;;;;-139.48;100.00;61774.03;5014393;28;20048;-73
2022/02/17 02:45:58;;;;;;;0.30;0.30;;;;;;;-139.48;100.00;61774.03;5014617;28;20052;-74
2022/02/17 02:48:42;;;;;;;1.95;0.30;;;;;;;-139.48;100.00;61774.03;5015203;28;20049;-73
2022/02/17 02:51:26;;;;;;;0.25;0.22;;;;;;;-139.48;100.00;61774.03;5015565;28;20057;-72
2022/02/17 02:54:10;;;;;;;2.22;0.20;;;;;;;-139.48;100.00;61774.03;5014277;28;20056;-74
2022/02/17 02:56:54;;;;;;;0.20;0.20;;;;;;;-139.48;100.00;61774.03;5014296;28;20128;-73
2022/02/17 02:59:41;;;;;;;0.15;0.10;;;;;;;-139.48;100.00;61774.03;5014408;28;20045;-72
2022/02/17 03:02:25;;;;;;;0.20;0.20;;;;;;;-139.48;100.00;61774.03;5015157;28;20057;-74
2022/02/17 03:05:11;;;;;;;0.20;0.20;;;;;;;-139.48;100.00;61774.03;5015416;28;20111;-74
2022/02/17 03:07:55;;;;;;;0.10;0.10;;;;;;;-139.48;100.00;61774.03;5014211;28;20044;-70
2022/02/17 03:10:39;;;;;;;1.10;0.20;;;;;;;-139.48;100.00;61774.03;5000380;28;20053;-74
2022/02/17 03:13:23;;;;;;;0.20;0.20;;;;;;;-139.48;100.00;61774.03;5015131;28;20084;-74
2022/02/17 03:16:07;;;;;;;0.20;0.20;;;;;;;-139.48;100.00;61774.03;5015323;28;20112;-74
2022/02/17 03:18:51;;;;;;;0.20;0.20;;;;;;;-139.48;100.00;61774.03;5014272;28;20521;-74
2022/02/17 03:21:35;;;;;;;0.20;0.20;;;;;;;-139.48;100.00;61774.03;5014753;28;20103;-74
2022/02/17 03:24:19;;;;;;;0.20;0.20;;;;;;;-139.48;100.00;61774.03;5013826;28;20521;-74
2022/02/17 03:27:04;;;;;;;0.10;0.10;;;;;;;-139.48;100.00;61774.03;5014750;28;20060;-74
2022/02/17 03:29:48;;;;;;;0.30;0.25;;;;;;;-139.48;100.00;61774.03;5013626;28;20127;-74
2022/02/17 03:32:33;;;;;;;0.15;0.15;;;;;;;-139.48;100.00;61774.03;5014750;28;20152;-73
2022/02/17 03:35:17;;;;;;;0.30;0.20;;;;;;;-139.48;100.00;61774.03;5014470;28;20081;-73
2022/02/17 03:38:01;;;;;;;0.20;0.20;;;;;;;-139.48;100.00;61774.03;5013399;28;20092;-74
2022/02/17 03:40:45;;;;;;;;;;;;;;;-139.48;100.00;61774.03;5013853;28;20052;-71
2022/02/17 03:43:29;;;;;;;0.20;0.20;;;;;;;-139.48;100.00;61774.03;4999458;28;19920;-74
2022/02/17 03:46:13;;;;;;;0.28;0.28;;;;;;;-139.48;100.00;61774.03;5014167;28;20512;-74
2022/02/17 03:48:57;;;;;;;0.20;0.20;;;;;;;-139.48;100.00;61774.03;5014068;28;20575;-73
2022/02/17 03:51:41;;;;;;;1.42;0.30;;;;;;;-139.48;100.00;61774.03;5014435;28;20524;-73
2022/02/17 03:54:25;;;;;;;0.43;0.20;;;;;;;-139.48;100.00;61774.03;5013377;28;20045;-74
2022/02/17 03:57:08;;;;;;;1.13;0.30;;;;;;;-139.48;100.00;61774.03;5014006;28;20049;-74
2022/02/17 03:59:52;;;;;;;0.20;0.20;;;;;;;-139.48;100.00;61774.03;5014552;28;20092;-74
2022/02/17 04:02:36;;;;;;;4.53;0.30;;;;;;;-139.48;100.00;61774.03;5014544;28;20060;-74
2022/02/17 04:05:20;;;;;;;1.45;0.20;;;;;;;-139.48;100.00;61774.03;5054057;22;20060;-72
2022/02/17 04:08:04;;;;;;;0.25;0.25;;;;;;;-139.48;100.00;61774.03;5018790;28;20052;-72
2022/02/17 04:10:48;;;;;;;0.20;0.20;;;;;;;-139.48;100.00;61774.03;5018736;28;20470;-73
2022/02/17 04:13:32;;;;;;;0.10;0.10;;;;;;;-139.48;100.00;61774.03;5018708;28;20044;-72
2022/02/17 04:16:17;;;;;;;0.13;0.13;;;;;;;-139.48;100.00;61774.03;4998811;28;20559;-72
2022/02/17 04:19:01;;;;;;;0.20;0.20;;;;;;;-139.48;100.00;61774.03;5013819;28;20172;-72
2022/02/17 04:21:45;;;;;;;0.20;0.20;;;;;;;-139.48;100.00;61774.03;4998921;28;20624;-72
2022/02/17 04:24:29;;;;;;;0.25;0.25;;;;;;;-139.48;100.00;61774.03;4998633;28;20410;-72
2022/02/17 04:27:13;;;;;;;0.30;0.30;;;;;;;-139.48;100.00;61774.03;5012666;28;20132;-72
2022/02/17 04:29:57;;;;;;;0.10;0.10;;;;;;;-139.48;100.00;61774.03;5013256;28;20041;-72
2022/02/17 04:32:41;;;;;;;0.47;0.47;;;;;;;-139.48;100.00;61774.03;5012821;28;20065;-72
2022/02/17 04:35:25;;;;;;;0.52;0.25;;;;;;;-139.48;100.00;61774.03;5012183;28;20103;-69
2022/02/17 04:38:12;;;;;;;0.45;0.35;;;;;;;-139.48;100.00;61774.03;4998645;28;20505;-72
2022/02/17 04:44:00;;;;;;;0.27;0.27;;;;;;;-139.48;100.00;61774.03;5001180;28;20056;-72
2022/02/17 04:46:43;;;;;;;0.28;0.20;;;;;;;-139.48;100.00;61774.03;5012422;28;20266;-72
2022/02/17 04:49:27;;;;;;;0.35;0.35;;;;;;;-139.48;100.00;61774.03;5013278;28;20045;-71
2022/02/17 04:52:11;;;;;;;1.08;0.32;;;;;;;-139.48;100.00;61774.03;5012291;28;20053;-72
2022/02/17 04:54:55;;;;;;;3.08;0.80;;;;;;;-139.48;100.00;61774.03;5012368;28;20108;-72
2022/02/17 04:57:39;;;;;;;2.80;1.17;;;;;;;-139.48;100.00;61774.03;5012167;28;20080;-72
2022/02/17 05:00:23;;;;;;;4.28;1.02;;;;;;;-139.48;100.00;61774.03;4998354;28;20099;-71
2022/02/17 05:03:07;;;;;;;5.35;1.15;;;;;;;-139.48;100.00;61774.03;5011911;28;20096;-71
2022/02/17 05:05:52;;;;;;;4.20;0.90;;;;;;;-139.48;100.00;61774.03;5012802;28;20056;-71
2022/02/17 05:08:35;;;;;;;5.95;1.50;;;;;;;-139.48;100.00;61774.03;5011785;28;20478;-71
2022/02/17 05:11:20;;;;;;;5.38;1.33;;;;;;;-139.48;100.00;61774.03;4998204;28;20386;-72
2022/02/17 05:14:04;;;;;;;5.43;1.38;;;;;;;-139.48;100.00;61774.03;5011885;28;20149;-70
2022/02/17 05:16:48;;;;;;;7.22;1.00;;;;;;;-139.48;100.00;61774.03;5012754;28;20049;-71
2022/02/17 05:19:32;;;;;;;5.60;1.35;;;;;;;-139.48;100.00;61774.03;5011934;28;20092;-71
2022/02/17 05:22:16;;;;;;;5.07;1.38;;;;;;;-139.48;100.00;61774.03;4998357;28;20461;-72
2022/02/17 05:25:00;;;;;;;3.95;1.35;;;;;;;-139.48;100.00;61774.03;5012893;28;20052;-71
2022/02/17 05:27:44;;;;;;;5.60;1.70;;;;;;;-139.48;100.00;61774.03;5011851;28;20049;-72
2022/02/17 05:30:27;;;;;;;5.15;1.08;;;;;;;-139.48;100.00;61774.03;5013418;28;20443;-71
2022/02/17 05:33:13;;;;;;;6.95;1.80;;;;;;;-139.48;100.00;61774.03;5012108;28;20409;-71
2022/02/17 05:35:57;;;;;;;4.32;1.50;;;;;;;-139.48;100.00;61774.03;5011550;28;20053;-71
2022/02/17 05:38:41;;;;;;;5.13;1.40;;;;;;;-139.48;100.00;61774.03;4998186;28;20071;-72
2022/02/17 05:41:25;;;;;;;;;;;;;;;-139.48;100.00;61774.03;4998635;28;20052;-70
2022/02/17 05:44:08;;;;;;;7.50;1.93;;;;;;;-139.48;100.00;61774.03;5016743;28;19998;-71
2022/02/17 05:46:52;;;;;;;9.45;2.17;;;;;;;-139.48;100.00;61774.03;5001775;28;20465;-71
2022/02/17 05:49:36;;;;;;;6.90;2.15;;;;;;;-139.48;100.00;61774.03;5015517;28;20049;-71
2022/02/17 05:52:20;;;;;;;6.72;2.10;;;;;;;-139.48;100.00;61774.03;5001694;28;20053;-70
2022/02/17 05:55:05;;;;;;;7.45;2.03;;;;;;;-139.48;100.00;61774.03;5016484;28;20100;-71
2022/02/17 05:57:49;;;;;;;8.55;2.13;;;;;;;-139.48;100.00;61774.03;5016489;28;20129;-69
2022/02/17 06:00:33;;;;;;;6.70;1.90;;;;;;;-139.48;100.00;61774.03;5001292;28;20096;-71
2022/02/17 06:03:17;;;;;;;5.35;1.73;;;;;;;-139.48;100.00;61774.03;5015718;28;20068;-71
2022/02/17 06:06:04;;;;;;;4.65;1.75;;;;;;;-139.48;100.00;61774.03;5001483;28;20048;-72
2022/02/17 06:08:48;;;;;;;16.38;2.85;;;;;;;-139.48;100.00;61774.03;5001048;28;20104;-72
2022/02/17 06:11:32;;;;;;;7.82;2.40;;;;;;;-139.48;100.00;61774.03;5016398;28;20524;-72
2022/02/17 06:14:16;;;;;;;8.13;2.85;;;;;;;-139.48;100.00;61774.03;5015121;28;20560;-73
2022/02/17 06:17:02;;;;;;;8.75;2.33;;;;;;;-139.48;100.00;61774.03;5015154;28;20052;-72
2022/02/17 06:19:46;;;;;;;13.27;2.38;;;;;;;-139.48;100.00;61774.03;5015077;28;20147;-71
2022/02/17 06:22:30;;;;;;;8.73;2.05;;;;;;;-139.48;100.00;61774.03;5016071;28;20053;-71
2022/02/17 06:25:16;;;;;;;13.85;2.78;;;;;;;-139.48;100.00;61774.03;5001154;28;20087;-72
2022/02/17 06:28:00;;;;;;;11.32;2.50;;;;;;;-139.48;100.00;61774.03;5014821;28;20100;-72
2022/02/17 06:30:47;;;;;;;11.32;2.28;;;;;;;-139.48;100.00;61774.03;5001057;28;20049;-72
2022/02/17 06:33:31;;;;;;;7.65;2.00;;;;;;;-139.48;100.00;61774.03;5001092;28;20061;-72
2022/02/17 06:36:17;;;;;;;10.52;2.72;;;;;;;-139.48;100.00;61774.03;5014796;28;20060;-72
2022/02/17 06:39:02;;;;;;;9.32;2.05;;;;;;;-139.48;100.00;61774.03;5000861;28;20073;-71
2022/02/17 06:41:46;;;;;;;8.02;2.10;;;;;;;-139.48;100.00;61774.03;5014526;28;20041;-71
2022/02/17 06:44:31;;;;;;;10.98;2.60;;;;;;;-139.48;100.00;61774.03;5015537;28;20521;-72
2022/02/17 06:47:15;;;;;;;11.85;2.38;;;;;;;-139.48;100.00;61774.03;5014317;28;20125;-72
2022/02/17 06:49:59;;;;;;;6.80;1.95;;;;;;;-139.48;100.00;61774.03;5015312;28;20084;-72
2022/02/17 06:52:43;;;;;;;10.27;2.33;;;;;;;-139.48;100.00;61774.03;5000657;28;20045;-71
2022/02/17 06:55:27;;;;;;;10.63;2.28;;;;;;;-139.48;100.00;61774.03;5000005;28;20052;-71
2022/02/17 06:58:11;;;;;;;;;;;;;;;-139.48;100.00;61774.03;5000909;28;20127;-71
2022/02/17 07:00:55;;;;;;;10.50;2.90;;;;;;;-139.48;100.00;61774.03;5014176;28;20281;-72
2022/02/17 07:03:39;;;;;;;14.00;3.22;;;;;;;-139.48;100.00;61774.03;5015265;28;20478;-72
2022/02/17 07:06:23;;;;;;;9.50;2.08;;;;;;;-139.48;100.00;61774.03;5000269;28;20156;-72
2022/02/17 07:09:07;;;;;;;12.63;1.90;;;;;;;-139.48;100.00;61774.03;5014972;28;20049;-71
2022/02/17 07:11:51;;;;;;;8.80;2.40;;;;;;;-139.48;100.00;61774.03;5015118;28;20516;-71
2022/02/17 07:14:35;;;;;;;12.50;3.03;;;;;;;-139.48;100.00;61774.03;5014113;28;20057;-71
2022/02/17 07:17:20;;;;;;;8.60;2.03;;;;;;;-139.48;100.00;61774.03;5000467;28;20045;-72
2022/02/17 07:20:05;;;;;;;11.80;2.97;;;;;;;-139.48;100.00;61774.03;4999861;28;20088;-71
2022/02/17 07:22:49;;;;;;;9.63;2.25;;;;;;;-139.48;100.00;61774.03;4986344;28;20048;-72
2022/02/17 07:25:33;;;;;;;9.93;1.92;;;;;;;-139.48;100.00;61774.03;5014541;28;20104;-72
2022/02/17 07:28:21;;;;;;;11.50;2.42;;;;;;;-139.48;100.00;61774.03;5013509;28;20048;-72
2022/02/17 07:31:07;;;;;;;11.35;2.00;;;;;;;-139.48;100.00;61774.03;5015027;28;20056;-72
2022/02/17 07:33:50;;;;;;;12.98;2.60;;;;;;;-139.48;100.00;61774.03;5014642;28;20049;-72
2022/02/17 07:36:35;;;;;;;13.90;2.50;;;;;;;-139.48;100.00;61774.03;5013307;28;20049;-71
2022/02/17 07:39:19;;;;;;;8.95;2.20;;;;;;;-139.48;100.00;61774.03;5014648;28;20052;-71
2022/02/17 07:42:03;;;;;;;;;;;;;;;-139.48;100.00;61774.03;5014018;28;20057;-70
2022/02/17 07:44:47;;;;;;;9.70;2.10;;;;;;;-139.48;100.00;61774.03;5014656;28;19928;-72
2022/02/17 07:47:31;;;;;;;10.07;2.22;;;;;;;-139.48;100.00;61774.03;5013168;28;20299;-71
2022/02/17 07:50:17;;;;;;;15.75;2.88;;;;;;;-139.48;100.00;61774.03;5013458;28;20099;-72
2022/02/17 07:53:01;;;;;;;9.13;2.33;;;;;;;-139.48;100.00;61774.03;4999541;28;20049;-70
2022/02/17 07:55:45;;;;;;;12.43;2.58;;;;;;;-139.48;100.00;61774.03;5014402;28;20148;-71
2022/02/17 07:58:29;;;;;;;10.95;2.72;;;;;;;-139.48;100.00;61774.03;5013412;28;20041;-71
2022/02/17 08:01:13;;;;;;;16.35;3.15;;;;;;;-139.48;100.00;61774.03;5013308;28;20147;-71
2022/02/17 08:03:57;;;;;;;12.80;3.65;;;;;;;-139.48;100.00;61774.03;5013929;28;20100;-70
2022/02/17 08:06:43;;;;;;;11.57;2.97;;;;;;;-139.48;100.00;61774.03;5012988;28;20172;-72
2022/02/17 08:09:27;;;;;;;10.13;2.83;;;;;;;-139.48;100.00;61774.03;5013981;28;20104;-72
2022/02/17 08:12:11;;;;;;;19.30;3.13;;;;;;;-139.48;100.00;61774.03;5014077;28;20141;-71
2022/02/17 08:14:55;;;;;;;15.43;3.38;;;;;;;-139.48;100.00;61774.03;4998822;28;20519;-72
2022/02/17 08:17:39;;;;;;;12.25;3.60;;;;;;;-139.48;100.00;61774.03;5014140;28;20461;-71
2022/02/17 08:20:23;;;;;;;12.35;3.25;;;;;;;-139.48;100.00;61774.03;5012892;28;20057;-71
2022/02/17 08:23:07;;;;;;;17.73;3.85;;;;;;;-139.48;100.00;61774.03;5013144;28;20052;-72
2022/02/17 08:25:51;;;;;;;20.33;3.25;;;;;;;-139.48;100.00;61774.03;5012519;28;20152;-72
2022/02/17 08:28:35;;;;;;;16.60;3.13;;;;;;;-139.48;100.00;61774.03;5013674;28;20529;-72
2022/02/17 08:31:19;;;;;;;10.68;3.30;;;;;;;-139.48;100.00;61774.03;5013684;28;20052;-71
2022/02/17 08:34:04;;;;;;;14.35;3.47;;;;;;;-139.48;100.00;61774.03;5013613;28;20052;-72
2022/02/17 08:36:48;;;;;;;21.08;4.50;;;;;;;-139.48;100.00;61774.03;5013307;28;20544;-72
2022/02/17 08:39:32;;;;;;;18.10;3.63;;;;;;;-139.48;100.00;61774.03;4998456;28;20049;-71
2022/02/17 08:42:16;;;;;;;16.45;3.58;;;;;;;-139.48;100.00;61774.03;5013318;28;20152;-71
2022/02/17 08:45:00;;;;;;;14.52;3.50;;;;;;;-139.48;100.00;61774.03;4998687;28;20045;-72
2022/02/17 08:47:44;;;;;;;16.63;3.78;;;;;;;-139.48;100.00;61774.03;5013296;28;20535;-72
2022/02/17 08:50:28;;;;;;;19.50;4.20;;;;;;;-139.48;100.00;61774.03;5013410;28;20052;-72
2022/02/17 08:53:12;;;;;;;19.30;3.97;;;;;;;-139.48;100.00;61774.03;5012260;28;20116;-72
2022/02/17 08:55:56;;;;;;;18.95;4.80;;;;;;;-139.48;100.00;61774.03;5012450;28;20084;-71
2022/02/17 08:58:40;;;;;;;14.75;3.40;;;;;;;-139.48;100.00;61774.03;5012346;28;20101;-72
2022/02/17 09:01:24;;;;;;;18.63;4.25;;;;;;;-139.48;100.00;61774.03;5012801;28;20458;-72
2022/02/17 09:04:08;;;;;;;26.38;5.03;;;;;;;-139.48;100.00;61774.03;5012012;28;20060;-72
2022/02/17 09:06:52;;;;;;;13.60;3.90;;;;;;;-139.48;100.00;61774.03;4998102;28;20125;-72
2022/02/17 09:09:36;;;;;;;20.75;3.97;;;;;;;-139.48;100.00;61774.03;5011890;28;20429;-71
2022/02/17 09:12:20;;;;;;;18.52;4.32;;;;;;;-139.48;100.00;61774.03;5012138;28;20554;-68
2022/02/17 09:15:05;;;;;;;19.13;3.90;;;;;;;-139.48;100.00;61774.03;5012156;28;20052;-72
2022/02/17 09:17:49;;;;;;;16.33;5.57;;;;;;;-139.48;100.00;61774.03;5011704;28;20123;-71
2022/02/17 09:20:35;;;;;;;26.88;5.35;;;;;;;-139.48;100.00;61774.03;5013398;28;20044;-71
2022/02/17 09:23:19;;;;;;;14.18;3.78;;;;;;;-139.48;100.00;61774.03;5011976;28;20099;-71
2022/02/17 09:26:03;;;;;;;22.88;4.78;;;;;;;-139.48;100.00;61774.03;5012750;28;20536;-71
2022/02/17 09:28:48;;;;;;;24.67;4.75;;;;;;;-139.48;100.00;61774.03;5012820;28;20069;-72
2022/02/17 09:31:33;;;;;;;21.75;4.43;;;;;;;-139.48;100.00;61774.03;5013106;28;20052;-71
2022/02/17 09:34:17;;;;;;;15.13;4.18;;;;;;;-139.48;100.00;61774.03;5011608;28;20108;-70
2022/02/17 09:37:01;;;;;;;;;;;;;;;-139.48;100.00;61774.03;5011985;28;20100;-72
2022/02/17 09:39:45;;;;;;;25.27;5.23;;;;;;;-139.48;100.00;61774.03;5013171;28;20345;-71
2022/02/17 09:42:36;;;;;;;17.00;4.00;;;;;;;-139.48;100.00;61774.03;4997882;28;20359;-71
2022/02/17 09:45:20;;;;;;;17.50;4.25;;;;;;;-139.48;100.00;61774.03;5011501;28;20625;-69
2022/02/17 09:48:05;;;;;;;19.45;4.55;;;;;;;-139.48;100.00;61774.03;5011311;28;20049;-72
2022/02/17 09:50:50;;;;;;;25.27;4.35;;;;;;;-139.48;100.00;61774.03;5011731;28;20053;-71
2022/02/17 09:53:34;;;;;;;21.20;4.80;;;;;;;-139.48;100.00;61774.03;5011500;28;20418;-71
2022/02/17 09:56:19;;;;;;;25.15;5.15;;;;;;;-139.48;100.00;61774.03;5011692;28;20076;-71
2022/02/17 09:59:04;;;;;;;26.95;5.30;;;;;;;-139.48;100.00;61774.03;4997965;28;20501;-72
2022/02/17 10:02:07;;;;;;;19.30;3.88;;;;;;;-139.48;100.00;61774.03;5011454;28;20053;-71
2022/02/17 10:07:44;;;;;;;18.17;4.40;;;;;;;-139.48;100.00;61774.03;4991806;28;20053;-73
2022/02/17 10:10:39;;;;;;;25.25;5.40;;;;;;;-139.48;100.00;61774.03;4978001;28;20065;-75
2022/02/17 10:13:23;;;;;;;23.35;4.60;;;;;;;-139.48;100.00;61774.03;4993488;28;20405;-75
2022/02/17 10:16:06;;;;;;;;;;;;;;;-139.48;100.00;61774.03;4978422;28;20517;-72
2022/02/17 10:18:50;;;;;;;25.77;4.55;;;;;;;-139.48;100.00;61774.03;4977961;28;19921;-73
2022/02/17 10:21:34;;;;;;;20.25;4.78;;;;;;;-139.48;100.00;61774.03;4992720;28;20049;-74
2022/02/17 10:24:43;;;;;;;13.65;3.30;;;;;;;-139.48;100.00;61774.03;4978399;28;20057;-70
2022/02/17 10:27:29;;;;;;;17.25;4.45;;;;;;;-139.48;100.00;61774.03;4977990;28;20049;-73
2022/02/17 10:30:13;;;;;;;16.40;4.05;;;;;;;-139.48;100.00;61774.03;4995525;28;20050;-73
2022/02/17 10:33:03;;;;;;;20.48;4.32;;;;;;;-139.48;100.00;61774.03;4996312;28;20105;-71
2022/02/17 10:35:54;;;;;;;17.42;4.22;;;;;;;-139.48;100.00;61774.03;4996405;28;20081;-73
2022/02/17 10:38:39;;;;;;;14.35;3.88;;;;;;;-139.48;100.00;61774.03;4996229;28;20049;-72
2022/02/17 10:41:43;;;;;;;18.77;4.50;;;;;;;-139.48;100.00;61774.03;4981440;28;20049;-72
2022/02/17 10:44:33;;;;;;;16.15;3.53;;;;;;;-139.48;100.00;61774.03;4981312;28;20457;-72
2022/02/17 10:47:25;;;;;;;16.48;4.05;;;;;;;-139.48;100.00;61774.03;4981220;28;20103;-72
2022/02/17 10:50:17;;;;;;;22.45;3.72;;;;;;;-139.48;100.00;61774.03;4981203;28;20057;-72
2022/02/17 10:53:17;;;;;;;18.75;3.78;;;;;;;-139.48;100.00;61774.03;4995681;28;20149;-71
2022/02/17 10:56:04;;;;;;;15.55;3.83;;;;;;;-139.48;100.00;61774.03;4980789;28;20513;-72
2022/02/17 10:58:48;;;;;;;18.42;4.13;;;;;;;-139.48;100.00;61774.03;4995855;28;20089;-73
2022/02/17 11:01:32;;;;;;;15.93;3.95;;;;;;;-139.48;100.00;61774.03;4981037;28;20045;-72
2022/02/17 11:04:16;;;;;;;16.92;4.45;;;;;;;-139.48;100.00;61774.03;4981032;28;20107;-72
2022/02/17 11:07:01;;;;;;;19.38;3.30;;;;;;;-139.48;100.00;61774.03;4980518;28;20048;-72
2022/02/17 11:09:46;;;;;;;20.77;3.80;;;;;;;-139.48;100.00;61774.03;4980643;28;20086;-72
2022/02/17 11:12:30;;;;;;;18.50;3.92;;;;;;;-139.48;100.00;61774.03;4995567;28;20049;-72
2022/02/17 11:15:15;;;;;;;16.35;3.78;;;;;;;-139.48;100.00;61774.03;4980457;28;20521;-73
2022/02/17 11:17:59;;;;;;;24.27;4.47;;;;;;;-139.48;100.00;61774.03;4980537;28;20458;-73
2022/02/17 11:20:46;;;;;;;18.27;3.67;;;;;;;-139.48;100.00;61774.03;4980693;28;20148;-73
2022/02/17 11:23:32;;;;;;;17.25;4.05;;;;;;;-139.48;100.00;61774.03;4980414;28;20053;-73
2022/02/17 11:26:22;;;;;;;20.00;3.97;;;;;;;-139.48;100.00;61774.03;4966778;28;20045;-73
2022/02/17 11:29:22;;;;;;;16.00;4.00;;;;;;;-139.48;100.00;61774.03;4980412;28;20512;-72
2022/02/17 11:32:11;;;;;;;15.05;4.10;;;;;;;-139.48;100.00;61774.03;4995641;28;20073;-73
2022/02/17 11:34:57;;;;;;;20.65;3.58;;;;;;;-139.48;100.00;61774.03;4980521;28;20462;-73
2022/02/17 11:37:44;;;;;;;19.77;4.68;;;;;;;-139.48;100.00;61774.03;4981091;28;20045;-73
2022/02/17 11:40:29;;;;;;;18.70;4.22;;;;;;;-139.48;100.00;61774.03;4980451;28;20418;-72
2022/02/17 11:43:13;;;;;;;24.05;3.70;;;;;;;-139.48;100.00;61774.03;4980386;28;20112;-72
2022/02/17 11:45:57;;;;;;;;;;;;;;;-139.48;100.00;61774.03;4980478;28;20089;-73
2022/02/17 11:48:44;;;;;;;13.93;3.57;;;;;;;-139.48;100.00;61774.03;4979940;28;19980;-73
2022/02/17 11:51:29;;;;;;;19.55;3.40;;;;;;;-139.48;100.00;61774.03;4966536;28;20053;-71
2022/02/17 11:54:15;;;;;;;18.02;3.97;;;;;;;-139.48;100.00;61774.03;4979794;28;20109;-73
2022/02/17 11:56:59;;;;;;;16.38;4.22;;;;;;;-139.48;100.00;61774.03;4979755;28;20052;-72
2022/02/17 11:59:45;;;;;;;15.30;3.65;;;;;;;-139.48;100.00;61774.03;4994753;28;20111;-72
2022/02/17 12:02:42;;;;;;;22.70;3.75;;;;;;;-139.48;100.00;61774.03;4994676;28;20080;-72
2022/02/17 12:05:28;;;;;;;18.45;3.53;;;;;;;-139.48;100.00;61774.03;4979620;28;20101;-72
2022/02/17 12:08:22;;;;;;;15.88;3.67;;;;;;;-139.48;100.00;61774.03;4979854;28;20048;-72
2022/02/17 12:11:29;;;;;;;14.50;3.97;;;;;;;-139.48;100.00;61774.03;4994457;28;20055;-72
2022/02/17 12:14:20;;;;;;;16.27;3.53;;;;;;;-139.48;100.00;61774.03;4994244;28;20096;-72
2022/02/17 12:17:04;;;;;;;20.75;4.15;;;;;;;-139.48;100.00;61774.03;4979636;28;20084;-72
2022/02/17 12:19:48;;;;;;;15.52;3.88;;;;;;;-139.48;100.00;61774.03;4994454;28;20131;-72
2022/02/17 12:22:33;;;;;;;16.33;4.90;;;;;;;-139.48;100.00;61774.03;4979607;28;20108;-72
2022/02/17 12:25:21;;;;;;;15.60;3.75;;;;;;;-139.48;100.00;61774.03;4979422;28;20181;-73
2022/02/17 12:28:11;;;;;;;22.90;4.13;;;;;;;-139.48;100.00;61774.03;4994155;28;20120;-72
2022/02/17 12:30:56;;;;;;;17.05;4.38;;;;;;;-139.48;100.00;61774.03;4979422;28;20108;-72
2022/02/17 12:33:39;;;;;;;19.50;3.78;;;;;;;-139.48;100.00;61774.03;4994189;28;20053;-72
2022/02/17 12:36:33;;;;;;;15.82;3.85;;;;;;;-139.48;100.00;61774.03;4979232;28;20057;-72